Time;durP1;ratioP1;P1;durP2;ratioP2;P2;SDS_P1;SDS_P2;PMS_P1;PMS_P2;Temp;Humidity;BMP_temperature;BMP_pressure;BME280_temperature;BME280_humidity;BME280_pressure;Samples;Min_cycle;Max_cycle;Signal;HPM_P1;HPM_P2
2021/01/03 00:00:39;;;;;;;18.10;11.95;;;;;;;19.63;39.63;99730.69;5041684;28;20033;-74
2021/01/03 00:03:05;;;;;;;19.10;11.18;;;;;;;19.61;39.65;99729.91;5034205;28;20064;-72
2021/01/03 00:05:32;;;;;;;18.00;12.57;;;;;;;19.63;39.53;99730.69;5034466;28;20044;-76
2021/01/03 00:07:58;;;;;;;15.38;11.50;;;;;;;19.62;39.76;99730.75;5036774;28;20048;-74
2021/01/03 00:10:24;;;;;;;17.83;11.40;;;;;;;19.61;39.52;99731.66;5050058;28;20030;-74
2021/01/03 00:12:50;;;;;;;16.88;11.43;;;;;;;19.62;39.48;99730.75;5034211;28;20111;-75
2021/01/03 00:15:19;;;;;;;17.08;11.48;;;;;;;19.62;39.53;99731.59;5034089;28;20181;-77
2021/01/03 00:17:45;;;;;;;17.15;11.48;;;;;;;19.63;39.58;99728.06;5032025;28;20738;-79
2021/01/03 00:20:16;;;;;;;15.95;11.20;;;;;;;19.61;39.62;99732.53;5033648;28;20043;-73
2021/01/03 00:22:41;;;;;;;17.73;11.60;;;;;;;19.61;39.65;99718.50;5033606;28;20541;-74
2021/01/03 00:25:07;;;;;;;16.88;12.00;;;;;;;19.63;39.58;99727.22;5034080;28;20045;-73
2021/01/03 00:27:33;;;;;;;15.95;11.07;;;;;;;19.62;39.65;99725.50;5046906;28;20521;-75
2021/01/03 00:29:59;;;;;;;19.23;12.18;;;;;;;19.61;39.30;99724.66;5053500;28;20060;-72
2021/01/03 00:32:24;;;;;;;18.10;11.80;;;;;;;19.61;39.85;99721.13;5053806;28;20037;-72
2021/01/03 00:34:50;;;;;;;16.33;11.05;;;;;;;19.61;39.65;99727.28;5053715;28;20045;-71
2021/01/03 00:37:15;;;;;;;17.33;12.18;;;;;;;19.61;39.61;99721.13;5053539;28;20033;-74
2021/01/03 00:39:40;;;;;;;17.20;11.88;;;;;;;19.61;39.65;99718.50;5053951;28;20539;-73
2021/01/03 00:42:06;;;;;;;15.88;10.13;;;;;;;19.62;39.60;99717.59;5053802;28;20448;-73
2021/01/03 00:44:32;;;;;;;17.25;11.82;;;;;;;19.61;39.29;99719.38;5037156;28;20044;-75
2021/01/03 00:46:57;;;;;;;17.17;11.88;;;;;;;19.61;39.80;99713.25;5033472;28;20060;-71
2021/01/03 00:49:23;;;;;;;17.52;11.73;;;;;;;19.61;39.54;99713.25;5033585;28;20405;-73
2021/01/03 00:51:48;;;;;;;16.63;10.95;;;;;;;19.61;39.50;99718.50;5033145;28;20033;-72
2021/01/03 00:54:14;;;;;;;17.35;11.20;;;;;;;19.60;39.60;99715.03;5033272;28;20034;-72
2021/01/03 00:56:40;;;;;;;15.82;11.07;;;;;;;19.60;39.67;99712.41;5033206;28;20041;-74
2021/01/03 00:59:05;;;;;;;16.60;11.55;;;;;;;19.60;39.47;99711.53;5033256;28;20048;-73
2021/01/03 01:01:31;;;;;;;16.38;11.55;;;;;;;19.60;39.42;99708.91;5052732;28;20036;-74
2021/01/03 01:03:56;;;;;;;16.15;11.50;;;;;;;19.59;39.63;99699.28;5051685;28;20043;-76
2021/01/03 01:06:23;;;;;;;16.63;10.75;;;;;;;19.59;39.73;99701.91;5052980;28;20126;-75
2021/01/03 01:08:51;;;;;;;16.45;11.45;;;;;;;19.60;39.62;99698.38;5051164;28;20079;-73
2021/01/03 01:11:17;;;;;;;15.70;10.95;;;;;;;19.58;39.55;99693.19;5051945;28;20040;-73
2021/01/03 01:13:42;;;;;;;16.02;11.23;;;;;;;19.57;39.63;99701.97;5052886;28;20074;-74
2021/01/03 01:16:09;;;;;;;16.30;11.57;;;;;;;19.60;39.60;99693.13;5053209;28;20025;-76
2021/01/03 01:18:35;;;;;;;16.38;10.88;;;;;;;19.60;39.61;99708.91;5052701;28;20371;-76
2021/01/03 01:21:00;;;;;;;17.00;11.75;;;;;;;19.58;39.64;99693.19;5051098;28;20119;-74
2021/01/03 01:23:26;;;;;;;16.30;11.00;;;;;;;19.59;39.67;99697.53;5053120;28;20119;-72
2021/01/03 01:25:51;;;;;;;17.88;11.38;;;;;;;19.58;39.68;99693.19;5052099;28;20490;-74
2021/01/03 01:28:16;;;;;;;16.40;12.02;;;;;;;19.58;39.54;99701.06;5052824;28;20040;-74
2021/01/03 01:30:42;;;;;;;17.70;11.52;;;;;;;19.59;39.61;99704.53;5052311;28;20540;-75
2021/01/03 01:33:08;;;;;;;16.70;11.95;;;;;;;19.58;39.49;99706.31;5052519;28;20128;-74
2021/01/03 01:35:34;;;;;;;18.15;12.45;;;;;;;19.58;39.58;99708.94;5052575;28;20489;-77
2021/01/03 01:38:01;;;;;;;16.23;11.98;;;;;;;19.58;39.64;99702.81;5052640;28;20444;-75
2021/01/03 01:40:33;;;;;;;16.48;12.18;;;;;;;19.59;39.56;99704.53;5052763;28;20029;-71
2021/01/03 01:42:58;;;;;;;15.38;10.93;;;;;;;19.59;39.53;99704.53;5052101;28;20097;-75
2021/01/03 01:45:28;;;;;;;16.42;11.00;;;;;;;19.60;39.66;99706.28;5052565;28;20552;-78
2021/01/03 01:48:00;;;;;;;16.13;11.15;;;;;;;19.57;39.38;99699.34;5052438;28;20029;-71
2021/01/03 01:50:38;;;;;;;15.27;11.23;;;;;;;19.57;39.45;99704.59;5050861;28;20029;-74
2021/01/03 01:53:08;;;;;;;17.75;11.57;;;;;;;19.56;39.55;99708.13;5051408;28;20033;-73
2021/01/03 01:55:40;;;;;;;17.58;11.70;;;;;;;19.57;39.81;99703.72;5051500;28;20025;-73
2021/01/03 01:58:13;;;;;;;15.77;10.93;;;;;;;19.56;39.58;99713.38;5050390;28;20086;-72
2021/01/03 02:00:41;;;;;;;16.03;11.67;;;;;;;19.57;39.44;99720.38;5036256;28;20401;-75
2021/01/03 02:03:20;;;;;;;16.52;11.45;;;;;;;19.55;39.62;99714.28;5032273;28;20074;-74
2021/01/03 02:05:48;;;;;;;15.18;11.55;;;;;;;19.58;39.61;99710.69;5032360;28;20048;-75
2021/01/03 02:08:22;;;;;;;16.00;11.65;;;;;;;19.59;39.67;99707.16;5032700;28;20041;-73
2021/01/03 02:10:49;;;;;;;16.80;10.77;;;;;;;19.58;39.57;99705.44;5051234;28;20571;-74
2021/01/03 02:13:32;;;;;;;18.35;11.77;;;;;;;19.58;39.55;99706.31;5043027;28;20096;-74
2021/01/03 02:16:03;;;;;;;14.98;10.02;;;;;;;19.58;39.43;99718.59;5031871;28;20073;-73
2021/01/03 02:18:29;;;;;;;15.82;11.60;;;;;;;19.57;39.58;99711.59;5031959;28;20095;-72
2021/01/03 02:21:17;;;;;;;15.38;10.57;;;;;;;19.55;39.35;99718.66;5032073;28;20498;-74
2021/01/03 02:24:10;;;;;;;15.90;11.43;;;;;;;19.57;39.48;99716.84;5031701;28;20041;-77
2021/01/03 02:26:43;;;;;;;15.65;10.95;;;;;;;19.55;39.72;99703.78;5031765;28;20048;-72
2021/01/03 02:29:11;;;;;;;14.68;11.55;;;;;;;19.55;39.57;99701.16;5030209;28;20183;-71
2021/01/03 02:31:42;;;;;;;16.83;11.48;;;;;;;19.56;39.67;99709.88;5031779;28;20486;-74
2021/01/03 02:34:11;;;;;;;15.32;11.13;;;;;;;19.58;39.47;99708.94;5031738;28;20038;-71
2021/01/03 02:36:46;;;;;;;16.33;11.23;;;;;;;19.57;39.37;99715.09;5031509;28;20034;-75
2021/01/03 02:39:27;;;;;;;14.98;10.88;;;;;;;19.56;39.62;99710.75;5032229;28;20379;-74
2021/01/03 02:41:56;;;;;;;16.20;11.32;;;;;;;19.57;39.56;99715.09;5044887;28;20029;-74
2021/01/03 02:44:22;;;;;;;14.90;10.48;;;;;;;19.58;39.71;99705.44;5051077;28;20516;-74
2021/01/03 02:46:49;;;;;;;15.63;10.07;;;;;;;19.57;39.68;99711.59;5051980;28;20076;-75
2021/01/03 02:49:16;;;;;;;14.60;10.18;;;;;;;19.57;39.54;99704.59;5037343;28;20140;-71
2021/01/03 02:51:42;;;;;;;13.73;10.35;;;;;;;19.56;39.67;99704.63;5031646;28;20041;-74
2021/01/03 02:54:08;;;;;;;14.82;10.45;;;;;;;19.56;39.59;99709.88;5032356;28;20489;-74
2021/01/03 02:56:34;;;;;;;14.40;9.77;;;;;;;19.55;39.70;99709.03;5032243;28;20152;-71
2021/01/03 02:59:00;;;;;;;14.88;10.70;;;;;;;19.55;39.42;99698.50;5032293;28;20076;-75
2021/01/03 03:01:25;;;;;;;15.77;10.98;;;;;;;19.55;39.74;99692.38;5032093;28;20037;-74
2021/01/03 03:03:50;;;;;;;14.48;10.48;;;;;;;19.55;39.42;99697.63;5031971;28;20069;-75
2021/01/03 03:06:16;;;;;;;15.68;10.95;;;;;;;19.55;39.64;99688.00;5031975;28;20113;-73
2021/01/03 03:08:41;;;;;;;15.30;10.52;;;;;;;19.57;39.63;99687.94;5033558;28;20024;-72
2021/01/03 03:11:07;;;;;;;14.40;9.68;;;;;;;19.55;39.57;99682.75;5032265;28;20577;-75
2021/01/03 03:13:33;;;;;;;13.15;9.45;;;;;;;19.54;39.59;99686.28;5032527;28;20079;-77
2021/01/03 03:15:58;;;;;;;13.57;10.30;;;;;;;19.56;39.46;99686.22;5032205;28;20104;-72
2021/01/03 03:18:24;;;;;;;11.77;9.18;;;;;;;19.56;39.49;99688.84;5032379;28;20025;-78
2021/01/03 03:20:49;;;;;;;13.05;9.32;;;;;;;19.55;39.51;99681.88;5045184;28;20040;-73
2021/01/03 03:23:15;;;;;;;15.07;10.50;;;;;;;19.55;39.57;99693.25;5029919;28;20099;-74
2021/01/03 03:25:40;;;;;;;15.32;10.45;;;;;;;19.56;39.63;99694.09;5029817;28;20041;-73
2021/01/03 03:28:06;;;;;;;13.70;10.10;;;;;;;19.55;39.51;99688.00;5030434;28;20037;-74
2021/01/03 03:30:31;;;;;;;14.82;10.80;;;;;;;19.56;39.38;99688.84;5029816;28;20037;-72
2021/01/03 03:32:58;;;;;;;12.80;9.80;;;;;;;19.56;39.46;99686.22;5029946;28;20076;-74
2021/01/03 03:35:29;;;;;;;14.18;9.75;;;;;;;19.56;39.46;99687.09;5031282;28;20033;-74
2021/01/03 03:37:56;;;;;;;13.73;9.93;;;;;;;19.56;39.55;99691.47;5031796;28;20037;-74
2021/01/03 03:40:23;;;;;;;14.00;10.10;;;;;;;19.55;39.68;99693.25;5033031;28;20061;-74
2021/01/03 03:42:48;;;;;;;12.55;9.73;;;;;;;19.55;39.43;99689.75;5051643;28;20094;-73
2021/01/03 03:45:15;;;;;;;13.38;9.32;;;;;;;19.55;39.37;99689.75;5036241;28;20050;-76
2021/01/03 03:47:40;;;;;;;14.00;9.30;;;;;;;19.55;39.51;99685.38;5030468;28;20494;-75
2021/01/03 03:50:08;;;;;;;13.77;9.68;;;;;;;19.57;39.61;99693.22;5031845;28;20049;-74
2021/01/03 03:52:33;;;;;;;16.50;10.27;;;;;;;19.55;39.50;99688.00;5031991;28;20112;-77
2021/01/03 03:54:59;;;;;;;14.30;10.02;;;;;;;19.54;39.53;99686.28;5035386;28;20064;-74
2021/01/03 03:57:24;;;;;;;13.27;9.43;;;;;;;19.56;39.68;99694.97;5035793;28;20065;-73
2021/01/03 03:59:50;;;;;;;14.43;9.85;;;;;;;19.54;39.64;99690.69;5041396;28;20101;-76
2021/01/03 04:02:15;;;;;;;14.80;10.65;;;;;;;19.56;39.55;99694.09;5055336;28;20041;-77
2021/01/03 04:04:44;;;;;;;13.18;9.68;;;;;;;19.54;39.58;99690.69;5055295;28;20041;-73
2021/01/03 04:07:09;;;;;;;12.77;9.50;;;;;;;19.53;39.64;99681.91;5054893;28;20041;-74
2021/01/03 04:09:34;;;;;;;13.00;9.95;;;;;;;19.55;39.72;99681.88;5050660;28;20037;-73
2021/01/03 04:12:00;;;;;;;13.10;9.85;;;;;;;19.54;39.52;99682.81;5054225;28;20049;-76
2021/01/03 04:14:26;;;;;;;12.70;9.40;;;;;;;19.53;39.52;99676.66;5055053;28;20444;-75
2021/01/03 04:16:54;;;;;;;13.48;9.68;;;;;;;19.54;39.71;99674.91;5053429;28;20132;-73
2021/01/03 04:19:20;;;;;;;14.05;10.48;;;;;;;19.54;39.62;99690.69;5054341;28;20553;-74
2021/01/03 04:21:55;;;;;;;11.68;9.43;;;;;;;19.54;39.44;99677.53;5040265;28;20125;-75
2021/01/03 04:24:20;;;;;;;13.50;9.50;;;;;;;19.55;39.39;99673.97;5034203;28;20543;-73
2021/01/03 04:26:54;;;;;;;12.75;9.27;;;;;;;19.54;39.63;99685.44;5032195;28;20440;-74
2021/01/03 04:29:20;;;;;;;14.60;10.27;;;;;;;19.54;39.62;99682.81;5032334;28;20029;-71
2021/01/03 04:31:46;;;;;;;14.32;10.15;;;;;;;19.55;39.62;99681.88;5033071;28;20045;-74
2021/01/03 04:34:12;;;;;;;14.23;9.93;;;;;;;19.56;39.70;99673.09;5033598;28;20084;-73
2021/01/03 04:36:37;;;;;;;12.63;9.73;;;;;;;19.54;39.49;99675.75;5032644;28;20030;-76
2021/01/03 04:39:04;;;;;;;14.93;10.32;;;;;;;19.54;39.58;99678.38;5033313;28;20032;-75
2021/01/03 04:41:41;;;;;;;13.23;10.07;;;;;;;19.53;39.52;99678.44;5045579;28;20493;-74
2021/01/03 04:44:17;;;;;;;13.27;9.85;;;;;;;19.53;39.56;99679.28;5054901;28;20128;-77
2021/01/03 04:46:42;;;;;;;13.32;9.75;;;;;;;19.55;39.31;99681.88;5055295;28;20033;-76
2021/01/03 04:49:20;;;;;;;14.10;10.05;;;;;;;19.54;39.31;99685.44;5054970;28;20029;-73
2021/01/03 04:52:09;;;;;;;13.05;9.18;;;;;;;19.55;39.53;99687.13;5054289;28;20087;-77
2021/01/03 04:54:35;;;;;;;11.75;8.95;;;;;;;19.55;39.56;99687.13;5053500;28;20041;-74
2021/01/03 04:57:07;;;;;;;12.50;9.50;;;;;;;19.55;39.45;99689.75;5053036;28;20047;-75
2021/01/03 04:59:46;;;;;;;13.68;9.60;;;;;;;19.54;39.31;99681.03;5065432;28;20037;-76
2021/01/03 05:02:20;;;;;;;12.98;9.73;;;;;;;19.57;39.57;99680.06;5032966;28;20516;-72
2021/01/03 05:04:57;;;;;;;12.10;9.18;;;;;;;19.58;39.43;99674.78;5032723;28;20052;-72
2021/01/03 05:07:30;;;;;;;12.90;10.02;;;;;;;19.55;39.38;99680.13;5032819;28;20034;-74
2021/01/03 05:10:20;;;;;;;15.73;9.25;;;;;;;19.54;39.53;99683.66;5034342;28;20045;-73
2021/01/03 05:12:52;;;;;;;13.48;9.30;;;;;;;19.51;39.51;99686.34;5051875;28;20076;-76
2021/01/03 05:15:24;;;;;;;13.25;9.95;;;;;;;19.49;39.61;99672.38;5053135;28;20455;-74
2021/01/03 05:17:50;;;;;;;13.68;9.93;;;;;;;19.50;39.68;99678.53;5053029;28;20108;-74
2021/01/03 05:20:15;;;;;;;12.02;8.88;;;;;;;19.48;39.56;99676.78;5051206;28;20136;-71
2021/01/03 05:22:41;;;;;;;11.40;8.40;;;;;;;19.49;39.46;99664.50;5052475;28;20090;-73
2021/01/03 05:25:11;;;;;;;12.65;9.23;;;;;;;19.50;39.57;99673.25;5052886;28;20048;-72
2021/01/03 05:27:36;;;;;;;16.42;10.00;;;;;;;19.50;39.55;99675.91;5052800;28;20486;-75
2021/01/03 05:30:28;;;;;;;13.50;9.48;;;;;;;19.50;39.64;99668.00;5053002;28;20064;-75
2021/01/03 05:33:07;;;;;;;14.13;9.38;;;;;;;19.50;39.45;99674.13;5052493;28;20049;-75
2021/01/03 05:35:38;;;;;;;10.75;8.15;;;;;;;19.51;39.50;99675.84;5051143;28;20041;-72
2021/01/03 05:38:05;;;;;;;11.90;8.68;;;;;;;19.50;39.58;99660.13;5045410;28;20026;-74
2021/01/03 05:40:40;;;;;;;13.27;9.05;;;;;;;19.52;39.53;99674.09;5034246;28;20037;-75
2021/01/03 05:43:11;;;;;;;13.27;9.43;;;;;;;19.52;39.64;99674.09;5051531;28;20494;-74
2021/01/03 05:46:05;;;;;;;13.60;9.20;;;;;;;19.51;39.50;99675.84;5051578;28;20037;-77
2021/01/03 05:49:01;;;;;;;14.13;9.45;;;;;;;19.51;39.63;99681.09;5051199;28;20028;-74
2021/01/03 05:51:49;;;;;;;12.15;9.27;;;;;;;19.53;39.67;99673.19;5046812;28;20532;-72
2021/01/03 05:54:36;;;;;;;10.93;7.90;;;;;;;19.49;39.35;99672.38;5032399;28;20030;-74
2021/01/03 05:57:22;;;;;;;13.98;9.70;;;;;;;19.50;39.53;99673.25;5032134;28;20521;-73
2021/01/03 05:59:48;;;;;;;11.10;8.82;;;;;;;19.51;39.55;99675.84;5038487;28;20045;-73
2021/01/03 06:02:28;;;;;;;12.65;8.40;;;;;;;19.52;39.58;99680.19;5032200;28;20033;-73
2021/01/03 06:05:18;;;;;;;12.18;8.95;;;;;;;19.50;39.55;99686.41;5031817;28;20042;-74
2021/01/03 06:08:02;;;;;;;13.80;8.95;;;;;;;19.52;39.43;99692.50;5048167;28;20489;-74
2021/01/03 06:10:48;;;;;;;12.77;9.75;;;;;;;19.48;39.56;99692.56;5052046;28;20437;-73
2021/01/03 06:13:15;;;;;;;10.95;8.32;;;;;;;19.50;39.48;99696.91;5051691;28;20083;-74
2021/01/03 06:15:46;;;;;;;11.30;8.73;;;;;;;19.50;39.45;99689.88;5049970;28;20483;-76
2021/01/03 06:18:16;;;;;;;13.05;9.40;;;;;;;19.50;39.54;99689.03;5051519;28;20037;-75
2021/01/03 06:20:42;;;;;;;11.20;8.88;;;;;;;19.50;39.60;99694.28;5051397;28;20032;-75
2021/01/03 06:23:18;;;;;;;11.07;8.18;;;;;;;19.50;39.57;99696.91;5051635;28;20041;-79
2021/01/03 06:26:02;;;;;;;12.13;9.77;;;;;;;19.49;39.47;99698.66;5051827;28;20384;-76
2021/01/03 06:28:40;;;;;;;12.63;9.00;;;;;;;19.48;39.47;99696.94;5050014;28;20516;-78
2021/01/03 06:31:36;;;;;;;13.63;9.13;;;;;;;19.48;39.41;99699.56;5050294;28;20497;-74
2021/01/03 06:34:22;;;;;;;12.98;8.82;;;;;;;19.47;39.34;99696.09;5051852;28;20037;-76
2021/01/03 06:37:07;;;;;;;12.80;9.82;;;;;;;19.45;39.51;99695.25;5051823;28;20051;-75
2021/01/03 06:39:36;;;;;;;12.05;8.68;;;;;;;19.46;39.50;99698.78;5052902;28;20036;-73
2021/01/03 06:42:42;;;;;;;12.73;9.30;;;;;;;19.45;39.50;99692.63;5050682;28;20035;-75
2021/01/03 06:45:42;;;;;;;12.98;8.77;;;;;;;19.44;39.54;99697.94;5037288;28;20406;-73
2021/01/03 06:48:16;;;;;;;13.02;9.55;;;;;;;19.44;39.55;99697.94;5051140;28;20131;-77
2021/01/03 06:50:55;;;;;;;10.43;7.80;;;;;;;19.44;39.32;99697.94;5049278;28;20054;-74
2021/01/03 06:53:26;;;;;;;12.38;8.60;;;;;;;19.43;39.65;99702.31;5044136;28;20045;-75
2021/01/03 06:56:01;;;;;;;12.05;8.75;;;;;;;19.45;39.41;99697.88;5031374;28;20510;-73
2021/01/03 06:58:29;;;;;;;12.80;9.10;;;;;;;19.47;39.52;99701.34;5031639;28;20510;-74
2021/01/03 07:01:00;;;;;;;12.75;9.88;;;;;;;19.46;39.53;99701.41;5030839;28;20132;-73
2021/01/03 07:03:35;;;;;;;14.05;9.25;;;;;;;19.45;39.61;99708.41;5031375;28;20099;-75
2021/01/03 07:06:09;;;;;;;12.20;9.07;;;;;;;19.45;39.64;99705.78;5046759;28;20391;-72
2021/01/03 07:08:42;;;;;;;12.25;8.80;;;;;;;19.47;39.63;99711.84;5031387;28;20030;-74
2021/01/03 07:11:37;;;;;;;12.10;8.95;;;;;;;19.46;39.50;99706.66;5049507;28;20044;-73
2021/01/03 07:14:05;;;;;;;12.38;9.32;;;;;;;19.46;39.56;99704.88;5046525;28;20049;-78
2021/01/03 07:16:56;;;;;;;12.23;9.35;;;;;;;19.47;39.35;99714.47;5031230;28;20034;-74
2021/01/03 07:19:30;;;;;;;13.80;10.38;;;;;;;19.46;39.52;99702.25;5030994;28;20029;-76
2021/01/03 07:22:30;;;;;;;11.27;8.75;;;;;;;19.46;39.57;99704.88;5029666;28;20045;-71
2021/01/03 07:24:55;;;;;;;12.00;9.27;;;;;;;19.47;39.65;99698.72;5031154;28;20562;-73
2021/01/03 07:27:43;;;;;;;11.98;9.73;;;;;;;19.47;39.74;99697.84;5031890;28;20113;-72
2021/01/03 07:30:08;;;;;;;12.75;9.00;;;;;;;19.46;39.55;99699.63;5034753;28;20041;-72
2021/01/03 07:32:37;;;;;;;12.43;8.80;;;;;;;19.47;39.47;99700.47;5034985;28;20045;-73
2021/01/03 07:35:27;;;;;;;13.20;9.68;;;;;;;19.47;39.48;99695.22;5046450;28;20045;-73
2021/01/03 07:38:14;;;;;;;11.38;8.93;;;;;;;19.45;39.43;99703.16;5054979;28;20040;-73
2021/01/03 07:40:54;;;;;;;11.57;8.65;;;;;;;19.45;39.67;99707.56;5053640;28;20370;-73
2021/01/03 07:43:21;;;;;;;12.02;9.15;;;;;;;19.47;39.73;99716.22;5054788;28;20037;-76
2021/01/03 07:45:48;;;;;;;12.43;9.57;;;;;;;19.46;39.61;99715.38;5053201;28;20537;-75
2021/01/03 07:48:33;;;;;;;12.15;9.25;;;;;;;19.46;39.66;99714.53;5050014;28;20041;-78
2021/01/03 07:50:59;;;;;;;12.88;8.98;;;;;;;19.45;39.82;99720.69;5034301;28;20037;-74
2021/01/03 07:53:36;;;;;;;11.23;9.20;;;;;;;19.45;39.69;99710.19;5034814;28;20398;-72
2021/01/03 07:56:17;;;;;;;12.35;9.52;;;;;;;19.45;39.70;99716.28;5034676;28;20076;-74
2021/01/03 07:58:42;;;;;;;11.85;9.18;;;;;;;19.45;39.58;99718.06;5034603;28;20036;-74
2021/01/03 08:01:10;;;;;;;12.15;9.57;;;;;;;19.46;39.35;99719.78;5050420;28;20052;-71
2021/01/03 08:03:35;;;;;;;10.75;9.02;;;;;;;19.45;39.40;99711.03;5053400;28;20045;-75
2021/01/03 08:06:07;;;;;;;11.98;8.75;;;;;;;19.46;39.53;99718.00;5053203;28;20060;-74
2021/01/03 08:08:33;;;;;;;14.18;10.05;;;;;;;19.47;39.59;99725.00;5047640;28;20034;-77
2021/01/03 08:11:24;;;;;;;13.35;9.57;;;;;;;19.46;39.61;99727.69;5050501;28;20037;-74
2021/01/03 08:13:55;;;;;;;12.45;9.35;;;;;;;19.44;39.71;99727.69;5053319;28;20033;-76
2021/01/03 08:16:23;;;;;;;12.82;9.45;;;;;;;19.46;39.64;99730.31;5053675;28;20044;-72
2021/01/03 08:19:04;;;;;;;12.32;8.63;;;;;;;19.45;39.35;99724.16;5053662;28;20413;-74
2021/01/03 08:21:35;;;;;;;12.15;8.77;;;;;;;19.44;39.40;99732.94;5037360;28;20037;-72
2021/01/03 08:24:08;;;;;;;12.60;9.18;;;;;;;19.44;39.63;99732.09;5032907;28;20116;-75
2021/01/03 08:26:48;;;;;;;12.10;8.82;;;;;;;19.44;39.74;99727.69;5034319;28;20409;-73
2021/01/03 08:29:23;;;;;;;11.57;9.00;;;;;;;19.44;39.56;99726.84;5033637;28;20033;-74
2021/01/03 08:31:54;;;;;;;13.95;9.77;;;;;;;19.43;39.39;99725.97;5033919;28;20042;-72
2021/01/03 08:34:28;;;;;;;11.85;9.05;;;;;;;19.46;39.43;99732.94;5046295;28;20072;-74
2021/01/03 08:36:54;;;;;;;12.35;8.60;;;;;;;19.48;39.47;99733.72;5043913;28;20090;-75
2021/01/03 08:39:19;;;;;;;12.43;8.30;;;;;;;19.47;39.59;99727.63;5030707;28;20041;-78
2021/01/03 08:42:07;;;;;;;11.43;7.95;;;;;;;19.49;39.49;99727.56;5042483;28;20029;-78
2021/01/03 08:44:40;;;;;;;12.82;9.73;;;;;;;19.47;39.26;99732.88;5050679;28;20532;-75
2021/01/03 08:47:08;;;;;;;12.83;8.93;;;;;;;19.49;39.54;99732.81;5054189;28;20032;-79
2021/01/03 08:49:34;;;;;;;13.43;8.77;;;;;;;19.52;39.61;99735.38;5038813;28;20038;-75
2021/01/03 08:52:08;;;;;;;12.75;8.13;;;;;;;19.52;39.74;99734.53;5037248;28;20041;-80
2021/01/03 08:54:33;;;;;;;10.60;8.25;;;;;;;19.53;39.58;99737.09;5033214;28;20034;-74
2021/01/03 08:57:02;;;;;;;14.10;9.85;;;;;;;19.53;39.39;99731.84;5037251;28;20036;-77
2021/01/03 08:59:27;;;;;;;15.52;10.05;;;;;;;19.52;39.49;99738.00;5053484;28;20082;-75
2021/01/03 09:01:53;;;;;;;13.07;9.20;;;;;;;19.55;39.52;99739.69;5037950;28;20437;-76
2021/01/03 09:04:20;;;;;;;13.32;8.57;;;;;;;19.56;39.63;99741.41;5031680;28;20105;-79
2021/01/03 09:06:56;;;;;;;12.38;8.68;;;;;;;19.55;39.57;99739.69;5033024;28;20022;-77
2021/01/03 09:09:29;;;;;;;12.10;8.82;;;;;;;19.55;39.26;99739.69;5042279;28;20048;-78
2021/01/03 09:12:01;;;;;;;12.00;9.17;;;;;;;19.58;39.61;99747.50;5034695;28;20156;-76
2021/01/03 09:14:32;;;;;;;11.38;8.68;;;;;;;19.56;39.49;99739.66;5032515;28;20367;-75
2021/01/03 09:17:16;;;;;;;16.33;8.85;;;;;;;19.57;39.54;99745.78;5033167;28;20033;-78
2021/01/03 09:20:00;;;;;;;13.48;8.95;;;;;;;19.57;39.57;99754.53;5031587;28;20052;-76
2021/01/03 09:22:33;;;;;;;11.00;8.82;;;;;;;19.60;39.38;99751.84;5043400;28;20532;-77
2021/01/03 09:25:05;;;;;;;13.55;8.68;;;;;;;19.60;39.61;99754.47;5032643;28;20045;-73
2021/01/03 09:27:32;;;;;;;12.98;8.35;;;;;;;19.59;39.54;99755.34;5015080;28;20888;-72
2021/01/03 09:30:20;;;;;;;12.43;8.35;;;;;;;19.59;39.57;99757.09;5032794;28;20038;-76
2021/01/03 09:32:51;;;;;;;13.30;9.50;;;;;;;19.65;39.70;99756.97;5031525;28;20069;-72
2021/01/03 09:35:47;;;;;;;12.52;8.82;;;;;;;19.81;39.56;99754.78;5032668;28;20041;-74
2021/01/03 09:38:55;;;;;;;15.07;9.48;;;;;;;19.96;39.89;99763.19;5032548;28;20121;-71
2021/01/03 09:41:21;;;;;;;20.52;10.27;;;;;;;20.00;40.27;99763.09;5040498;28;20469;-75
2021/01/03 09:44:14;;;;;;;15.13;9.38;;;;;;;19.96;40.30;99769.31;5050596;28;20079;-75
2021/01/03 09:46:53;;;;;;;17.53;10.33;;;;;;;19.88;40.10;99756.38;5052692;28;20041;-79
2021/01/03 09:49:23;;;;;;;19.58;10.05;;;;;;;19.86;40.41;99765.16;5052501;28;20105;-78
2021/01/03 09:52:07;;;;;;;17.70;9.68;;;;;;;19.85;40.03;99766.09;5051926;28;20138;-76
2021/01/03 09:55:03;;;;;;;16.88;8.68;;;;;;;19.85;40.18;99763.47;5052527;28;20064;-79
2021/01/03 09:58:04;;;;;;;13.65;10.18;;;;;;;19.82;40.31;99763.53;5052579;28;20095;-77
2021/01/03 10:00:44;;;;;;;15.25;9.38;;;;;;;19.81;40.14;99767.06;5039695;28;20049;-72
2021/01/03 10:03:44;;;;;;;18.35;9.82;;;;;;;19.82;40.25;99764.38;5031685;28;20458;-76
2021/01/03 10:06:45;;;;;;;14.13;9.60;;;;;;;19.84;40.15;99756.47;5032154;28;20127;-77
2021/01/03 10:09:25;;;;;;;16.70;10.35;;;;;;;19.83;40.27;99757.38;5039135;28;20045;-78
2021/01/03 10:11:52;;;;;;;16.42;11.18;;;;;;;19.85;40.22;99761.69;5036919;28;20048;-77
2021/01/03 10:14:35;;;;;;;17.75;11.02;;;;;;;19.81;40.12;99746.03;5035163;28;20047;-77
2021/01/03 10:17:20;;;;;;;17.60;10.90;;;;;;;19.76;40.24;99746.16;5037390;28;20041;-77
2021/01/03 10:19:46;;;;;;;14.65;10.35;;;;;;;19.74;40.53;99750.59;5031970;28;20041;-78
2021/01/03 10:22:44;;;;;;;19.63;11.30;;;;;;;19.70;40.03;99749.78;5031772;28;20413;-72
2021/01/03 10:25:13;;;;;;;15.23;11.30;;;;;;;19.69;40.23;99756.00;5019559;28;20045;-76
2021/01/03 10:27:39;;;;;;;19.42;12.00;;;;;;;19.68;40.24;99754.25;5031759;28;20036;-73
2021/01/03 10:30:08;;;;;;;16.33;11.15;;;;;;;19.68;39.89;99756.88;5031859;28;20402;-72
2021/01/03 10:32:38;;;;;;;16.83;11.45;;;;;;;19.64;39.64;99752.59;5031432;28;20064;-76
2021/01/03 10:35:06;;;;;;;19.08;10.98;;;;;;;19.63;39.94;99750.88;5031686;28;20068;-78
2021/01/03 10:37:31;;;;;;;14.27;10.32;;;;;;;19.63;39.52;99753.50;5031867;28;20041;-73
2021/01/03 10:39:56;;;;;;;15.75;10.43;;;;;;;19.61;39.61;99756.19;5031681;28;20086;-76
2021/01/03 10:42:22;;;;;;;16.95;10.63;;;;;;;19.60;39.34;99748.31;5031937;28;20037;-75
2021/01/03 10:44:47;;;;;;;17.60;10.98;;;;;;;19.62;39.43;99751.78;5031641;28;20179;-73
2021/01/03 10:47:14;;;;;;;14.63;9.65;;;;;;;19.62;39.38;99750.00;5034725;28;20460;-74
2021/01/03 10:49:39;;;;;;;15.30;9.85;;;;;;;19.64;39.31;99752.59;5040156;28;20036;-78
2021/01/03 10:52:05;;;;;;;16.35;9.38;;;;;;;19.65;39.46;99749.06;5031399;28;20025;-75
2021/01/03 10:54:31;;;;;;;14.55;9.68;;;;;;;19.66;39.39;99749.94;5031441;28;20076;-79
2021/01/03 10:56:57;;;;;;;13.15;9.30;;;;;;;19.67;39.33;99757.78;5031917;28;20053;-74
2021/01/03 10:59:25;;;;;;;13.35;9.40;;;;;;;19.67;39.34;99749.91;5033072;28;20034;-75
2021/01/03 11:01:51;;;;;;;12.75;8.25;;;;;;;19.67;39.34;99747.28;5050758;28;20592;-75
2021/01/03 11:04:18;;;;;;;15.32;9.43;;;;;;;19.70;39.56;99746.31;5055743;28;20049;-76
2021/01/03 11:06:46;;;;;;;12.52;8.43;;;;;;;19.71;39.51;99745.41;5055933;28;20508;-79
2021/01/03 11:09:19;;;;;;;12.93;8.45;;;;;;;19.73;39.41;99744.47;5047463;28;20046;-76
2021/01/03 11:11:46;;;;;;;15.82;9.82;;;;;;;19.72;39.73;99744.53;5054254;28;20485;-77
2021/01/03 11:14:13;;;;;;;12.30;7.57;;;;;;;19.73;39.91;99754.13;5054922;28;20524;-75
2021/01/03 11:16:41;;;;;;;12.02;7.47;;;;;;;19.74;39.68;99740.09;5055366;28;20039;-78
2021/01/03 11:19:12;;;;;;;13.95;8.15;;;;;;;19.74;39.81;99740.94;5054754;28;20036;-76
2021/01/03 11:21:38;;;;;;;11.75;8.90;;;;;;;19.72;39.46;99736.63;5054982;28;20029;-79
2021/01/03 11:24:08;;;;;;;18.52;8.90;;;;;;;19.72;39.60;99734.00;5054691;28;20409;-76
2021/01/03 11:26:38;;;;;;;17.33;9.07;;;;;;;19.71;39.48;99730.50;5055243;28;20478;-78
2021/01/03 11:29:08;;;;;;;12.95;9.15;;;;;;;19.71;39.36;99729.66;5054857;28;20025;-72
2021/01/03 11:31:48;;;;;;;14.23;9.57;;;;;;;19.70;39.35;99734.03;5055474;28;20033;-76
2021/01/03 11:34:18;;;;;;;12.20;9.18;;;;;;;19.71;39.55;99730.50;5053651;28;20043;-73
2021/01/03 11:36:47;;;;;;;15.40;8.88;;;;;;;19.73;39.68;99728.69;5054727;28;20075;-73
2021/01/03 11:39:13;;;;;;;14.80;9.27;;;;;;;19.75;39.59;99723.41;5054865;28;20074;-72
2021/01/03 11:41:39;;;;;;;13.40;8.25;;;;;;;19.76;39.54;99726.00;5054953;28;20438;-74
2021/01/03 11:44:05;;;;;;;13.98;8.52;;;;;;;19.75;39.55;99726.88;5054897;28;20048;-73